createdAt,value
2023-03-22T00:00:17.072Z,16.27
2023-03-22T00:02:43.778Z,14.10
2023-03-22T00:05:10.521Z,17.70
2023-03-22T00:07:37.820Z,14.75
2023-03-22T00:10:05.898Z,13.70
2023-03-22T00:12:32.586Z,14.15
2023-03-22T00:15:00.223Z,14.85
2023-03-22T00:17:32.992Z,14.93
2023-03-22T00:19:59.627Z,15.10
2023-03-22T00:22:26.348Z,15.65
2023-03-22T00:24:53.029Z,14.85
2023-03-22T00:27:19.690Z,14.00
2023-03-22T00:29:46.421Z,12.68
2023-03-22T00:32:13.617Z,13.93
2023-03-22T00:34:40.344Z,12.57
2023-03-22T00:37:08.205Z,11.95
2023-03-22T00:39:34.907Z,12.20
2023-03-22T00:42:01.607Z,13.75
2023-03-22T00:44:28.361Z,11.82
2023-03-22T00:46:55.052Z,14.88
2023-03-22T00:49:21.990Z,13.82
2023-03-22T00:51:48.879Z,12.77
2023-03-22T00:54:17.097Z,12.40
2023-03-22T00:56:47.183Z,12.93
2023-03-22T00:59:14.052Z,13.00
2023-03-22T01:01:40.751Z,12.23
2023-03-22T01:04:07.464Z,12.20
2023-03-22T01:06:35.650Z,13.27
2023-03-22T01:09:02.316Z,13.25
2023-03-22T01:11:29.054Z,12.35
2023-03-22T01:13:55.987Z,12.32
2023-03-22T01:16:22.740Z,12.25
2023-03-22T01:18:49.417Z,13.90
2023-03-22T01:21:16.104Z,13.40
2023-03-22T01:23:42.822Z,14.38
2023-03-22T01:26:09.673Z,13.68
2023-03-22T01:28:36.418Z,13.50
2023-03-22T01:31:04.215Z,13.48
2023-03-22T01:33:31.209Z,13.50
2023-03-22T01:35:58.026Z,11.93
2023-03-22T01:38:24.735Z,12.48
2023-03-22T01:40:52.221Z,13.85
2023-03-22T01:43:19.231Z,11.88
2023-03-22T01:45:53.164Z,12.65
2023-03-22T01:48:34.311Z,10.98
2023-03-22T01:51:07.241Z,11.10
2023-03-22T01:53:39.526Z,11.10
2023-03-22T01:56:07.086Z,12.98
2023-03-22T01:58:37.530Z,15.88
2023-03-22T02:01:06.205Z,32.10
2023-03-22T02:03:43.341Z,21.05
2023-03-22T02:06:10.087Z,16.38
2023-03-22T02:08:36.756Z,11.23
2023-03-22T02:11:04.661Z,10.50
2023-03-22T02:14:05.584Z,9.48
2023-03-22T02:16:44.145Z,9.70
2023-03-22T02:19:16.686Z,10.25
2023-03-22T02:21:55.426Z,9.63
2023-03-22T02:24:28.207Z,10.43
2023-03-22T02:27:13.720Z,11.68
2023-03-22T02:29:54.978Z,10.85
2023-03-22T02:32:55.505Z,11.65
2023-03-22T02:35:38.486Z,13.75
2023-03-22T02:38:05.164Z,12.32
2023-03-22T02:40:46.445Z,14.73
2023-03-22T02:43:23.546Z,15.88
2023-03-22T02:46:24.606Z,24.65
2023-03-22T02:49:02.103Z,19.92
2023-03-22T02:51:58.735Z,16.05
2023-03-22T02:54:34.707Z,15.38
2023-03-22T02:57:16.202Z,15.13
2023-03-22T02:59:45.281Z,13.95
2023-03-22T03:02:18.743Z,14.15
2023-03-22T03:04:49.801Z,16.02
2023-03-22T03:07:22.025Z,8.43
2023-03-22T03:09:50.323Z,8.20
2023-03-22T03:12:23.692Z,10.02
2023-03-22T03:14:50.496Z,9.75
2023-03-22T03:17:36.177Z,9.85
2023-03-22T03:20:08.573Z,10.15
2023-03-22T03:22:35.269Z,43.05
2023-03-22T03:25:22.215Z,66.03
2023-03-22T03:27:59.677Z,11.77
2023-03-22T03:30:43.713Z,12.68
2023-03-22T03:33:16.706Z,11.02
2023-03-22T03:35:50.885Z,12.02
2023-03-22T03:38:22.697Z,12.35
2023-03-22T03:41:03.115Z,12.98
2023-03-22T03:43:30.636Z,14.38
2023-03-22T03:45:57.882Z,13.77
2023-03-22T03:48:33.167Z,14.68
2023-03-22T03:51:02.000Z,14.82
2023-03-22T03:53:29.838Z,13.75
2023-03-22T03:55:56.600Z,16.20
2023-03-22T03:58:23.284Z,17.63
2023-03-22T04:00:50.652Z,12.50
2023-03-22T04:03:17.674Z,18.42
2023-03-22T04:05:45.173Z,13.07
2023-03-22T04:08:11.979Z,10.48
2023-03-22T04:10:38.911Z,10.02
2023-03-22T04:13:05.855Z,12.07
2023-03-22T04:15:32.904Z,11.57
2023-03-22T04:17:59.735Z,12.05
2023-03-22T04:20:27.122Z,11.40
2023-03-22T04:22:53.857Z,12.00
2023-03-22T04:25:22.867Z,10.35
2023-03-22T04:27:51.380Z,16.10
2023-03-22T04:30:20.303Z,14.07
2023-03-22T04:32:47.927Z,12.73
2023-03-22T04:35:15.564Z,13.48
2023-03-22T04:37:43.145Z,13.60
2023-03-22T04:40:16.669Z,14.32
2023-03-22T04:42:44.311Z,14.70
2023-03-22T04:45:12.488Z,18.73
2023-03-22T04:47:39.526Z,19.40
2023-03-22T04:50:07.438Z,21.60
2023-03-22T04:52:34.132Z,28.90
2023-03-22T04:55:00.921Z,26.17
2023-03-22T04:57:27.722Z,24.60
2023-03-22T04:59:54.393Z,26.73
2023-03-22T05:02:21.264Z,21.00
2023-03-22T05:04:47.885Z,21.38
2023-03-22T05:07:14.635Z,27.40
2023-03-22T05:09:41.491Z,16.98
2023-03-22T05:12:08.143Z,14.68
2023-03-22T05:14:34.955Z,16.40
2023-03-22T05:17:01.833Z,20.05
2023-03-22T05:19:29.098Z,23.63
2023-03-22T05:21:58.490Z,21.73
2023-03-22T05:24:25.707Z,26.65
2023-03-22T05:26:54.012Z,22.48
2023-03-22T05:29:21.539Z,22.58
2023-03-22T05:31:48.777Z,23.25
2023-03-22T05:34:15.547Z,24.80
2023-03-22T05:36:42.312Z,29.13
2023-03-22T05:39:09.500Z,26.15
2023-03-22T05:41:36.977Z,39.53
2023-03-22T05:44:04.998Z,30.38
2023-03-22T05:46:31.969Z,45.63
2023-03-22T05:48:58.788Z,29.42
2023-03-22T05:51:25.698Z,32.28
2023-03-22T05:53:53.692Z,32.03
2023-03-22T05:56:24.332Z,32.83
2023-03-22T05:58:52.137Z,34.60
2023-03-22T06:01:20.613Z,68.53
2023-03-22T06:03:48.594Z,58.10
2023-03-22T06:06:15.945Z,41.53
2023-03-22T06:08:43.210Z,29.20
2023-03-22T06:11:10.250Z,29.60
2023-03-22T06:13:37.624Z,21.17
2023-03-22T06:16:05.484Z,18.58
2023-03-22T06:18:33.207Z,21.40
2023-03-22T06:21:00.323Z,29.48
2023-03-22T06:23:27.161Z,35.65
2023-03-22T06:25:53.965Z,31.92
2023-03-22T06:28:20.762Z,21.73
2023-03-22T06:30:47.499Z,22.10
2023-03-22T06:33:14.229Z,19.65
2023-03-22T06:35:41.191Z,20.35
2023-03-22T06:38:07.993Z,23.13
2023-03-22T06:40:35.853Z,24.67
2023-03-22T06:43:06.339Z,19.20
2023-03-22T06:45:33.723Z,18.38
2023-03-22T06:48:01.121Z,16.17
2023-03-22T06:50:28.960Z,17.80
2023-03-22T06:52:56.189Z,18.20
2023-03-22T06:55:22.985Z,17.58
2023-03-22T06:57:49.858Z,12.27
2023-03-22T07:00:16.957Z,17.00
2023-03-22T07:02:43.643Z,13.45
2023-03-22T07:05:13.544Z,9.80
2023-03-22T07:07:40.280Z,6.70
2023-03-22T07:10:08.032Z,8.65
2023-03-22T07:12:35.151Z,7.90
2023-03-22T07:15:02.518Z,9.43
2023-03-22T07:17:29.294Z,11.85
2023-03-22T07:19:56.033Z,7.07
2023-03-22T07:22:23.023Z,6.57
2023-03-22T07:24:56.709Z,5.15
2023-03-22T07:27:24.574Z,5.95
2023-03-22T07:29:51.587Z,6.05
2023-03-22T07:32:18.284Z,5.95
2023-03-22T07:34:45.248Z,6.85
2023-03-22T07:37:12.060Z,6.20
2023-03-22T07:39:38.865Z,7.43
2023-03-22T07:42:05.592Z,7.22
2023-03-22T07:44:32.541Z,9.50
2023-03-22T07:46:59.300Z,8.00
2023-03-22T07:49:27.315Z,8.98
2023-03-22T07:51:54.152Z,8.93
2023-03-22T07:54:33.763Z,10.38
2023-03-22T07:57:01.409Z,9.63
2023-03-22T07:59:28.331Z,5.25
2023-03-22T08:01:55.593Z,6.03
2023-03-22T08:04:22.714Z,7.38
2023-03-22T08:06:50.107Z,5.53
2023-03-22T08:09:17.446Z,6.97
2023-03-22T08:11:44.171Z,6.93
2023-03-22T08:14:11.154Z,5.32
2023-03-22T08:16:38.671Z,5.78
2023-03-22T08:19:06.092Z,7.30
2023-03-22T08:21:32.848Z,5.05
2023-03-22T08:23:59.529Z,3.80
2023-03-22T08:26:27.208Z,5.63
2023-03-22T08:28:53.944Z,12.20
2023-03-22T08:31:20.789Z,9.15
2023-03-22T08:33:47.885Z,6.03
2023-03-22T08:36:19.031Z,5.07
2023-03-22T08:38:45.908Z,6.45
2023-03-22T08:41:13.594Z,7.22
2023-03-22T08:43:40.314Z,6.82
2023-03-22T08:46:07.288Z,5.85
2023-03-22T08:48:35.814Z,5.32
2023-03-22T08:51:05.317Z,5.38
2023-03-22T08:53:32.012Z,4.80
2023-03-22T08:56:02.264Z,5.60
2023-03-22T08:58:29.404Z,6.70
2023-03-22T09:00:56.221Z,5.10
2023-03-22T09:03:25.005Z,5.72
2023-03-22T09:05:51.727Z,7.18
2023-03-22T09:08:19.851Z,7.78
2023-03-22T09:10:51.964Z,5.93
2023-03-22T09:13:20.129Z,6.30
2023-03-22T09:15:47.678Z,7.18
2023-03-22T09:18:15.403Z,7.70
2023-03-22T09:20:43.148Z,7.70
2023-03-22T09:23:10.417Z,7.20
2023-03-22T09:25:37.162Z,7.75
2023-03-22T09:28:04.573Z,7.30
2023-03-22T09:30:31.423Z,7.85
2023-03-22T09:32:58.178Z,8.48
2023-03-22T09:35:24.972Z,8.35
2023-03-22T09:37:54.651Z,9.38
2023-03-22T09:40:27.022Z,6.60
2023-03-22T09:42:56.705Z,7.20
2023-03-22T09:45:41.856Z,7.35
2023-03-22T09:48:21.090Z,7.40
2023-03-22T09:50:51.585Z,8.90
2023-03-22T09:53:19.173Z,9.73
2023-03-22T09:56:01.370Z,6.80
2023-03-22T09:58:38.803Z,6.15
2023-03-22T10:01:18.510Z,6.03
2023-03-22T10:04:04.904Z,5.70
2023-03-22T10:06:32.182Z,7.00
2023-03-22T10:09:04.939Z,6.60
2023-03-22T10:11:49.259Z,6.28
2023-03-22T10:14:29.972Z,7.78
2023-03-22T10:16:58.993Z,11.18
2023-03-22T10:19:35.951Z,9.00
2023-03-22T10:22:06.524Z,9.63
2023-03-22T10:24:35.938Z,8.38
2023-03-22T10:27:03.089Z,9.18
2023-03-22T10:29:38.603Z,7.90
2023-03-22T10:32:25.184Z,11.95
2023-03-22T10:34:52.643Z,12.80
2023-03-22T10:37:32.198Z,8.05
2023-03-22T10:40:01.372Z,8.15
2023-03-22T10:42:30.559Z,8.60
2023-03-22T10:45:12.272Z,9.73
2023-03-22T10:48:03.870Z,6.43
2023-03-22T10:50:34.534Z,8.68
2023-03-22T10:53:22.947Z,6.68
2023-03-22T10:55:49.631Z,8.70
2023-03-22T10:58:17.388Z,9.35
2023-03-22T11:00:56.965Z,10.00
2023-03-22T11:03:43.577Z,8.65
2023-03-22T11:06:13.371Z,6.22
2023-03-22T11:09:11.678Z,12.13
2023-03-22T11:11:54.772Z,10.25
2023-03-22T11:14:30.690Z,9.10
2023-03-22T11:17:08.698Z,7.07
2023-03-22T11:19:52.924Z,10.63
2023-03-22T11:22:39.257Z,9.25
2023-03-22T11:25:21.335Z,7.00
2023-03-22T11:28:19.388Z,5.03
2023-03-22T11:31:00.269Z,3.97
2023-03-22T11:33:26.990Z,6.03
2023-03-22T11:35:56.676Z,3.05
2023-03-22T11:38:26.381Z,5.05
2023-03-22T11:41:01.680Z,5.72
2023-03-22T11:43:52.720Z,4.13
2023-03-22T11:46:20.848Z,5.60
2023-03-22T11:48:51.829Z,4.47
2023-03-22T11:51:30.271Z,6.00
2023-03-22T11:54:08.417Z,6.57
2023-03-22T11:56:41.668Z,4.70
2023-03-22T11:59:14.838Z,10.05
2023-03-22T12:02:06.760Z,9.95
2023-03-22T12:04:39.795Z,30.45
2023-03-22T12:07:15.576Z,4.60
2023-03-22T12:09:48.762Z,8.75
2023-03-22T12:12:24.767Z,41.35
2023-03-22T12:14:57.361Z,8.52
2023-03-22T12:17:37.110Z,5.75
2023-03-22T12:20:17.880Z,3.65
2023-03-22T12:22:51.939Z,3.80
2023-03-22T12:25:25.766Z,2.83
2023-03-22T12:27:59.553Z,5.32
2023-03-22T12:30:30.517Z,7.53
2023-03-22T12:33:06.679Z,9.60
2023-03-22T12:35:36.446Z,6.88
2023-03-22T12:38:16.352Z,4.88
2023-03-22T12:40:44.372Z,6.80
2023-03-22T12:43:22.315Z,7.07
2023-03-22T12:45:54.903Z,8.57
2023-03-22T12:48:41.348Z,5.50
2023-03-22T12:51:11.847Z,4.07
2023-03-22T12:53:53.256Z,2.55
2023-03-22T12:56:37.290Z,3.80
2023-03-22T12:59:08.217Z,3.00
2023-03-22T13:01:58.141Z,2.63
2023-03-22T13:04:36.771Z,2.67
2023-03-22T13:07:13.967Z,5.15
2023-03-22T13:09:49.073Z,6.30
2023-03-22T13:12:18.619Z,5.93
2023-03-22T13:14:56.325Z,7.28
2023-03-22T13:17:23.027Z,6.80
2023-03-22T13:19:59.386Z,6.10
2023-03-22T13:22:27.699Z,4.90
2023-03-22T13:25:07.361Z,5.10
2023-03-22T13:27:53.105Z,5.40
2023-03-22T13:30:30.134Z,4.95
2023-03-22T13:33:21.243Z,4.95
2023-03-22T13:35:54.411Z,5.68
2023-03-22T13:38:42.210Z,7.47
2023-03-22T13:41:28.309Z,6.32
2023-03-22T13:43:57.227Z,5.32
2023-03-22T13:46:47.328Z,5.35
2023-03-22T13:49:20.817Z,8.48
2023-03-22T13:51:48.937Z,9.15
2023-03-22T13:54:18.136Z,7.30
2023-03-22T13:56:44.885Z,7.15
2023-03-22T13:59:19.378Z,7.90
2023-03-22T14:01:57.485Z,8.85
2023-03-22T14:04:35.175Z,5.53
2023-03-22T14:07:20.812Z,6.30
2023-03-22T14:09:59.419Z,5.82
2023-03-22T14:13:02.429Z,5.07
2023-03-22T14:15:33.696Z,7.78
2023-03-22T14:18:08.359Z,9.10
2023-03-22T14:20:37.917Z,9.52
